createdAt,value
2018-11-29T00:00:28.590Z,1.96
2018-11-29T00:02:57.688Z,1.99
2018-11-29T00:05:26.864Z,2.02
2018-11-29T00:07:56.739Z,2.08
2018-11-29T00:10:25.935Z,2.05
2018-11-29T00:12:55.004Z,2.04
2018-11-29T00:15:24.482Z,2.02
2018-11-29T00:17:53.455Z,2.06
2018-11-29T00:20:22.432Z,1.99
2018-11-29T00:22:52.098Z,1.98
2018-11-29T00:25:21.349Z,2.02
2018-11-29T00:27:50.319Z,2.01
2018-11-29T00:30:20.806Z,2.02
2018-11-29T00:32:50.386Z,1.99
2018-11-29T00:35:19.487Z,2.03
2018-11-29T00:37:48.542Z,1.92
2018-11-29T00:40:19.330Z,1.82
2018-11-29T00:42:48.696Z,1.87
2018-11-29T00:45:18.947Z,1.79
2018-11-29T00:47:48.551Z,1.87
2018-11-29T00:50:18.124Z,1.81
2018-11-29T00:52:48.265Z,1.81
2018-11-29T00:55:18.610Z,1.83
2018-11-29T00:57:47.751Z,1.89
2018-11-29T01:00:21.742Z,1.73
2018-11-29T01:02:50.979Z,1.81
2018-11-29T01:05:19.997Z,1.83
2018-11-29T01:07:48.942Z,1.81
2018-11-29T01:10:19.299Z,1.80
2018-11-29T01:12:48.782Z,1.69
2018-11-29T01:15:18.638Z,1.61
2018-11-29T01:17:48.515Z,1.49
2018-11-29T01:20:18.865Z,1.45
2018-11-29T01:22:48.047Z,1.42
2018-11-29T01:25:17.539Z,1.34
2018-11-29T01:27:47.572Z,1.22
2018-11-29T01:30:17.592Z,1.14
2018-11-29T01:32:46.503Z,1.11
2018-11-29T01:35:17.475Z,1.16
2018-11-29T01:37:46.509Z,1.27
2018-11-29T01:40:16.690Z,1.32
2018-11-29T01:42:47.162Z,1.35
2018-11-29T01:45:16.360Z,1.41
2018-11-29T01:47:45.339Z,1.29
2018-11-29T01:50:14.564Z,1.24
2018-11-29T01:52:43.487Z,1.32
2018-11-29T01:55:12.748Z,1.21
2018-11-29T01:57:41.784Z,1.13
2018-11-29T02:00:13.101Z,1.18
2018-11-29T02:02:42.420Z,1.03
2018-11-29T02:05:12.331Z,1.21
2018-11-29T02:07:41.304Z,1.28
2018-11-29T02:10:17.079Z,1.32
2018-11-29T02:12:46.236Z,1.38
2018-11-29T02:15:15.216Z,1.37
2018-11-29T02:17:44.260Z,1.37
2018-11-29T02:20:19.367Z,1.37
2018-11-29T02:22:50.563Z,1.41
2018-11-29T02:25:19.526Z,1.39
2018-11-29T02:27:48.484Z,1.37
2018-11-29T02:30:20.372Z,1.34
2018-11-29T02:32:49.399Z,1.36
2018-11-29T02:35:18.333Z,1.38
2018-11-29T02:37:47.381Z,1.42
2018-11-29T02:40:17.533Z,1.41
2018-11-29T02:42:47.100Z,1.42
2018-11-29T02:45:19.195Z,1.44
2018-11-29T02:47:48.164Z,1.42
2018-11-29T02:50:17.431Z,1.45
2018-11-29T02:52:46.351Z,1.48
2018-11-29T02:55:15.311Z,1.45
2018-11-29T02:57:44.520Z,1.43
2018-11-29T03:00:18.403Z,1.41
2018-11-29T03:02:47.283Z,1.43
2018-11-29T03:05:17.228Z,1.42
2018-11-29T03:07:46.426Z,1.38
2018-11-29T03:10:16.108Z,1.43
2018-11-29T03:12:45.378Z,1.49
2018-11-29T03:15:16.584Z,1.49
2018-11-29T03:17:45.760Z,1.52
2018-11-29T03:20:15.748Z,1.54
2018-11-29T03:22:44.667Z,1.55
2018-11-29T03:25:14.929Z,1.54
2018-11-29T03:27:44.158Z,1.53
2018-11-29T03:30:17.759Z,1.54
2018-11-29T03:32:47.019Z,1.50
2018-11-29T03:35:16.516Z,1.48
2018-11-29T03:37:45.517Z,1.47
2018-11-29T03:40:16.755Z,1.48
2018-11-29T03:42:46.553Z,1.50
2018-11-29T03:45:16.343Z,1.50
2018-11-29T03:47:45.887Z,1.50
2018-11-29T03:50:16.056Z,1.48
2018-11-29T03:52:45.067Z,1.51
2018-11-29T03:55:14.058Z,1.51
2018-11-29T03:57:43.409Z,1.51
2018-11-29T04:00:14.036Z,1.48
2018-11-29T04:02:43.286Z,1.42
2018-11-29T04:05:12.560Z,1.29
2018-11-29T04:07:41.835Z,1.14
2018-11-29T04:10:15.000Z,1.20
2018-11-29T04:12:44.263Z,1.19
2018-11-29T04:15:15.129Z,1.19
2018-11-29T04:17:44.179Z,1.22
2018-11-29T04:20:17.131Z,1.26
2018-11-29T04:22:46.643Z,1.14
2018-11-29T04:25:16.417Z,1.13
2018-11-29T04:27:45.423Z,1.13
2018-11-29T04:30:15.579Z,1.20
2018-11-29T04:32:44.582Z,1.18
2018-11-29T04:35:14.327Z,1.17
2018-11-29T04:37:43.244Z,1.19
2018-11-29T04:40:15.452Z,1.20
2018-11-29T04:42:45.055Z,1.24
2018-11-29T04:45:16.704Z,1.21
2018-11-29T04:47:45.842Z,1.22
2018-11-29T04:50:15.819Z,1.20
2018-11-29T04:52:44.863Z,1.05
2018-11-29T04:55:13.895Z,1.05
2018-11-29T04:57:42.927Z,1.08
2018-11-29T05:00:14.361Z,1.10
2018-11-29T05:02:43.399Z,1.13
2018-11-29T05:05:13.509Z,1.13
2018-11-29T05:07:42.537Z,1.15
2018-11-29T05:10:12.953Z,1.19
2018-11-29T05:12:42.191Z,1.18
2018-11-29T05:15:12.044Z,1.18
2018-11-29T05:17:40.943Z,1.15
2018-11-29T05:20:10.525Z,1.17
2018-11-29T05:22:39.491Z,1.03
2018-11-29T05:25:09.600Z,0.89
2018-11-29T05:27:38.591Z,1.00
2018-11-29T05:30:11.949Z,1.07
2018-11-29T05:32:41.314Z,1.12
2018-11-29T05:35:12.325Z,1.14
2018-11-29T05:37:41.632Z,1.07
2018-11-29T05:40:12.869Z,1.10
2018-11-29T05:42:41.935Z,1.11
2018-11-29T05:45:11.779Z,1.14
2018-11-29T05:47:40.792Z,1.18
2018-11-29T05:50:12.103Z,1.16
2018-11-29T05:52:42.058Z,1.14
2018-11-29T05:55:11.953Z,1.14
2018-11-29T05:57:40.957Z,1.18
2018-11-29T06:00:12.796Z,1.20
2018-11-29T06:02:41.920Z,1.20
2018-11-29T06:05:12.447Z,1.21
2018-11-29T06:07:41.522Z,1.12
2018-11-29T06:10:11.079Z,1.15
2018-11-29T06:12:40.242Z,1.22
2018-11-29T06:15:11.204Z,1.21
2018-11-29T06:17:40.971Z,1.21
2018-11-29T06:20:13.064Z,1.11
2018-11-29T06:22:43.088Z,1.07
2018-11-29T06:25:12.395Z,0.97
2018-11-29T06:27:41.603Z,0.98
2018-11-29T06:30:13.255Z,1.11
2018-11-29T06:32:42.316Z,1.01
2018-11-29T06:35:12.008Z,1.17
2018-11-29T06:37:41.289Z,1.25
2018-11-29T06:40:11.976Z,1.12
2018-11-29T06:42:41.270Z,1.19
2018-11-29T06:45:13.693Z,1.20
2018-11-29T06:47:43.086Z,1.15
2018-11-29T06:50:13.492Z,1.15
2018-11-29T06:52:43.887Z,1.17
2018-11-29T06:55:14.706Z,1.24
2018-11-29T06:57:43.864Z,1.25
2018-11-29T07:00:16.959Z,1.35
2018-11-29T07:02:46.438Z,1.35
2018-11-29T07:05:15.501Z,1.31
2018-11-29T07:07:44.731Z,1.30
2018-11-29T07:10:13.773Z,1.14
2018-11-29T07:12:43.143Z,1.25
2018-11-29T07:15:13.487Z,1.32
2018-11-29T07:17:43.481Z,1.28
2018-11-29T07:20:14.986Z,1.25
2018-11-29T07:22:44.240Z,1.36
2018-11-29T07:25:13.527Z,1.36
2018-11-29T07:27:42.560Z,1.41
2018-11-29T07:30:15.225Z,1.44
2018-11-29T07:32:44.697Z,1.45
2018-11-29T07:35:14.709Z,1.53
2018-11-29T07:37:43.836Z,1.66
2018-11-29T07:40:15.155Z,1.69
2018-11-29T07:42:44.430Z,1.75
2018-11-29T07:45:16.107Z,1.80
2018-11-29T07:47:45.741Z,1.66
2018-11-29T07:50:16.280Z,1.85
2018-11-29T07:52:45.245Z,1.88
2018-11-29T07:55:16.333Z,1.83
2018-11-29T07:57:45.967Z,1.69
2018-11-29T08:00:16.009Z,1.78
2018-11-29T08:02:45.178Z,1.87
2018-11-29T08:05:15.305Z,1.94
2018-11-29T08:07:47.679Z,1.99
2018-11-29T08:10:18.003Z,2.00
2018-11-29T08:12:47.256Z,1.99
2018-11-29T08:15:17.443Z,2.11
2018-11-29T08:17:46.412Z,2.15
2018-11-29T08:20:17.090Z,2.14
2018-11-29T08:22:48.221Z,2.11
2018-11-29T08:25:17.498Z,2.11
2018-11-29T08:27:46.900Z,2.21
2018-11-29T08:30:16.906Z,2.22
2018-11-29T08:32:45.874Z,2.17
2018-11-29T08:35:16.376Z,2.16
2018-11-29T08:37:46.705Z,2.21
2018-11-29T08:40:19.013Z,2.31
2018-11-29T08:42:48.372Z,2.43
2018-11-29T08:45:17.432Z,2.43
2018-11-29T08:47:46.640Z,2.47
2018-11-29T08:50:16.377Z,2.46
2018-11-29T08:52:46.561Z,2.47
2018-11-29T08:55:18.625Z,2.48
2018-11-29T08:57:48.904Z,2.31
2018-11-29T09:00:24.369Z,2.20
2018-11-29T09:02:53.291Z,2.15
2018-11-29T09:05:22.645Z,2.21
2018-11-29T09:07:51.971Z,2.32
2018-11-29T09:10:24.095Z,2.33
2018-11-29T09:12:53.795Z,2.29
2018-11-29T09:15:23.206Z,2.28
2018-11-29T09:17:52.280Z,2.31
2018-11-29T09:20:23.253Z,2.35
2018-11-29T09:22:52.312Z,2.42
2018-11-29T09:25:23.063Z,2.38
2018-11-29T09:27:53.233Z,2.40
2018-11-29T09:30:23.136Z,2.32
2018-11-29T09:32:53.743Z,2.41
2018-11-29T09:35:22.935Z,2.51
2018-11-29T09:37:52.543Z,2.48
2018-11-29T09:40:21.625Z,2.45
2018-11-29T09:42:50.891Z,2.45
2018-11-29T09:45:23.165Z,2.67
2018-11-29T09:47:54.782Z,2.76
2018-11-29T09:50:24.332Z,2.83
2018-11-29T09:52:53.773Z,2.81
2018-11-29T09:55:23.296Z,2.93
2018-11-29T09:57:52.587Z,3.14
2018-11-29T10:00:28.836Z,3.28
2018-11-29T10:03:11.319Z,3.24
2018-11-29T10:05:40.983Z,3.18
2018-11-29T10:08:11.955Z,3.16
2018-11-29T10:10:40.695Z,3.16
2018-11-29T10:13:09.886Z,3.25
2018-11-29T10:15:38.939Z,3.29
2018-11-29T10:18:09.047Z,3.31
2018-11-29T10:20:37.980Z,3.41
2018-11-29T10:23:08.319Z,3.55
2018-11-29T10:25:38.683Z,3.66
2018-11-29T10:28:13.518Z,3.73
2018-11-29T10:30:50.709Z,3.76
2018-11-29T10:33:20.303Z,3.74
2018-11-29T10:35:49.983Z,3.84
2018-11-29T10:38:19.238Z,3.95
2018-11-29T10:40:48.588Z,3.96
2018-11-29T10:43:18.091Z,3.97
2018-11-29T10:45:47.403Z,4.01
2018-11-29T10:48:19.080Z,4.13
2018-11-29T10:50:47.962Z,4.25
2018-11-29T10:53:18.468Z,4.22
2018-11-29T10:55:47.568Z,4.27
2018-11-29T10:58:16.932Z,4.27
2018-11-29T11:00:51.532Z,4.36
2018-11-29T11:03:21.720Z,4.54
2018-11-29T11:05:52.746Z,4.62
2018-11-29T11:08:22.080Z,4.61
2018-11-29T11:10:51.246Z,4.61
2018-11-29T11:13:20.238Z,4.62
2018-11-29T11:15:49.177Z,4.64
2018-11-29T11:18:19.061Z,4.67
2018-11-29T11:20:48.011Z,4.58
2018-11-29T11:23:17.090Z,4.50
2018-11-29T11:25:46.409Z,4.43
2018-11-29T11:28:15.751Z,4.39
2018-11-29T11:30:45.433Z,4.20
2018-11-29T11:33:14.465Z,4.23
2018-11-29T11:35:43.889Z,4.22
2018-11-29T11:38:12.852Z,4.24
2018-11-29T11:40:41.756Z,4.21
2018-11-29T11:43:11.443Z,4.25
2018-11-29T11:45:40.440Z,4.36
2018-11-29T11:48:09.732Z,4.25
2018-11-29T11:50:38.807Z,4.25
2018-11-29T11:53:08.774Z,4.21
2018-11-29T11:55:38.665Z,4.25
2018-11-29T11:58:08.788Z,4.19
2018-11-29T12:00:38.487Z,4.16
2018-11-29T12:03:09.880Z,4.23
2018-11-29T12:05:39.444Z,4.29
2018-11-29T12:08:08.805Z,4.30
2018-11-29T12:10:38.724Z,4.31
2018-11-29T12:13:08.889Z,4.35
2018-11-29T12:15:38.946Z,4.24
2018-11-29T12:18:11.188Z,4.26
2018-11-29T12:20:40.563Z,4.19
2018-11-29T12:23:10.268Z,4.16
2018-11-29T12:25:39.166Z,4.12
2018-11-29T12:28:08.212Z,4.10
2018-11-29T12:30:44.547Z,4.09
2018-11-29T12:33:13.620Z,4.19
2018-11-29T12:35:42.446Z,4.21
2018-11-29T12:38:11.388Z,4.21
2018-11-29T12:40:40.740Z,4.25
2018-11-29T12:43:10.028Z,4.30
2018-11-29T12:45:38.958Z,4.24
2018-11-29T12:48:07.971Z,4.15
2018-11-29T12:50:38.903Z,4.14
2018-11-29T12:53:08.899Z,4.14
2018-11-29T12:55:43.514Z,4.09
2018-11-29T12:58:12.557Z,3.99
2018-11-29T13:00:41.542Z,3.68
2018-11-29T13:03:11.487Z,3.65
2018-11-29T13:05:40.636Z,3.76
2018-11-29T13:08:10.617Z,3.81
2018-11-29T13:10:39.728Z,3.94
2018-11-29T13:13:09.044Z,3.92
2018-11-29T13:15:38.545Z,3.71
2018-11-29T13:18:09.007Z,3.68
2018-11-29T13:20:38.929Z,3.31
2018-11-29T13:23:08.364Z,3.46
2018-11-29T13:25:38.178Z,3.34
2018-11-29T13:28:08.420Z,3.52
2018-11-29T13:30:38.259Z,3.69
2018-11-29T13:33:09.207Z,3.34
2018-11-29T13:35:38.280Z,3.56
2018-11-29T13:38:12.269Z,3.58
2018-11-29T13:40:42.352Z,3.71
2018-11-29T13:43:11.833Z,3.70
2018-11-29T13:45:41.599Z,3.70
2018-11-29T13:48:11.504Z,3.71
2018-11-29T13:50:42.035Z,3.70
2018-11-29T13:53:11.461Z,3.75
2018-11-29T13:55:41.303Z,3.75
2018-11-29T13:58:10.372Z,3.78
2018-11-29T14:00:39.537Z,3.77
2018-11-29T14:03:12.187Z,3.78
2018-11-29T14:05:41.239Z,3.69
2018-11-29T14:08:11.033Z,3.66
2018-11-29T14:10:41.683Z,3.55
2018-11-29T14:13:11.267Z,3.53
2018-11-29T14:15:40.671Z,3.47
2018-11-29T14:18:09.963Z,3.40
2018-11-29T14:20:38.979Z,3.39
2018-11-29T14:23:08.467Z,3.39
2018-11-29T14:25:37.548Z,3.24
2018-11-29T14:28:07.435Z,2.97
2018-11-29T14:30:36.555Z,2.96
2018-11-29T14:33:06.195Z,3.07
2018-11-29T14:35:35.220Z,3.08
2018-11-29T14:38:04.083Z,3.14
2018-11-29T14:40:35.525Z,3.13
2018-11-29T14:43:04.494Z,3.17
2018-11-29T14:45:33.436Z,3.13
2018-11-29T14:48:02.284Z,2.82
2018-11-29T14:50:47.583Z,2.78
2018-11-29T14:53:16.667Z,2.85
2018-11-29T14:55:46.581Z,2.83
2018-11-29T14:58:19.647Z,2.86
2018-11-29T15:00:45.718Z,2.89
2018-11-29T15:03:17.701Z,2.92
2018-11-29T15:05:47.378Z,2.84
2018-11-29T15:08:16.604Z,2.88
2018-11-29T15:10:45.899Z,2.78
2018-11-29T15:13:15.168Z,2.66
2018-11-29T15:15:44.355Z,2.65
2018-11-29T15:18:13.579Z,2.75
2018-11-29T15:20:46.860Z,2.75
2018-11-29T15:23:17.049Z,2.77
2018-11-29T15:25:46.208Z,2.71
2018-11-29T15:28:15.348Z,2.76
2018-11-29T15:30:44.575Z,2.80
2018-11-29T15:33:13.634Z,2.75
2018-11-29T15:35:43.131Z,2.57
2018-11-29T15:38:12.290Z,2.70
2018-11-29T15:40:41.475Z,2.45
2018-11-29T15:43:10.594Z,2.15
2018-11-29T15:45:39.970Z,1.96
2018-11-29T15:48:08.916Z,2.03
2018-11-29T15:50:37.878Z,1.80
2018-11-29T15:53:07.639Z,1.85
2018-11-29T15:55:36.767Z,1.81
2018-11-29T15:58:06.215Z,1.89
2018-11-29T16:00:35.472Z,1.69
2018-11-29T16:03:07.309Z,1.84
2018-11-29T16:05:36.394Z,1.78
2018-11-29T16:08:06.004Z,1.64
2018-11-29T16:10:35.494Z,1.58
2018-11-29T16:13:05.203Z,1.56
2018-11-29T16:15:34.078Z,1.70
2018-11-29T16:18:04.256Z,1.74
2018-11-29T16:20:35.716Z,1.89
2018-11-29T16:23:05.264Z,1.92
2018-11-29T16:25:34.548Z,1.94
2018-11-29T16:28:05.226Z,1.92
2018-11-29T16:30:36.051Z,1.92
2018-11-29T16:33:09.619Z,1.90
2018-11-29T16:35:39.207Z,1.93
2018-11-29T16:38:08.726Z,1.70
2018-11-29T16:40:38.136Z,1.80
2018-11-29T16:43:08.195Z,1.76
2018-11-29T16:45:37.261Z,1.82
2018-11-29T16:48:07.178Z,1.74
2018-11-29T16:50:36.795Z,1.40
2018-11-29T16:53:06.887Z,1.42
2018-11-29T16:55:36.268Z,1.67
2018-11-29T16:58:08.283Z,1.61
2018-11-29T17:00:38.345Z,1.41
2018-11-29T17:03:07.568Z,1.61
2018-11-29T17:05:36.631Z,1.69
2018-11-29T17:08:05.732Z,1.47
2018-11-29T17:10:35.045Z,1.54
2018-11-29T17:13:10.223Z,1.51
2018-11-29T17:15:39.223Z,1.43
2018-11-29T17:18:08.680Z,1.48
2018-11-29T17:20:37.748Z,1.49
2018-11-29T17:23:08.577Z,1.33
2018-11-29T17:25:37.545Z,1.06
2018-11-29T17:28:07.428Z,0.92
2018-11-29T17:30:37.877Z,1.00
2018-11-29T17:33:08.151Z,1.13
2018-11-29T17:35:37.275Z,0.91
2018-11-29T17:38:06.591Z,1.03
2018-11-29T17:40:37.128Z,1.13
2018-11-29T17:43:07.016Z,1.07
2018-11-29T17:45:36.416Z,0.89
2018-11-29T17:48:09.295Z,0.81
2018-11-29T17:50:40.622Z,0.80
2018-11-29T17:53:09.792Z,0.71
2018-11-29T17:55:39.191Z,0.75
2018-11-29T17:58:10.591Z,0.92
2018-11-29T18:00:40.024Z,0.99
2018-11-29T18:03:09.559Z,1.01
2018-11-29T18:05:38.523Z,1.06
2018-11-29T18:08:07.432Z,1.17
2018-11-29T18:10:38.452Z,1.32
2018-11-29T18:13:13.876Z,1.34
2018-11-29T18:15:43.120Z,1.38
2018-11-29T18:18:12.381Z,1.29
2018-11-29T18:20:41.583Z,1.31
2018-11-29T18:23:11.392Z,1.27
2018-11-29T18:25:40.703Z,1.35
2018-11-29T18:28:10.320Z,1.33
2018-11-29T18:30:39.264Z,1.35
2018-11-29T18:33:08.735Z,1.34
2018-11-29T18:35:38.027Z,1.31
2018-11-29T18:38:08.114Z,1.20
2018-11-29T18:40:37.155Z,0.99
2018-11-29T18:43:08.224Z,0.98
2018-11-29T18:45:38.464Z,0.97
2018-11-29T18:48:08.037Z,0.96
2018-11-29T18:50:37.014Z,0.98
2018-11-29T18:53:07.068Z,0.99
2018-11-29T18:55:36.364Z,1.20
2018-11-29T18:58:05.547Z,1.23
2018-11-29T19:00:35.957Z,1.23
2018-11-29T19:03:05.520Z,1.25
2018-11-29T19:05:35.497Z,1.20
2018-11-29T19:08:03.996Z,1.10
2018-11-29T19:10:33.243Z,1.07
2018-11-29T19:13:09.847Z,1.13
2018-11-29T19:15:39.159Z,1.06
2018-11-29T19:18:10.708Z,1.13
2018-11-29T19:20:38.901Z,0.89
2018-11-29T19:23:08.425Z,0.73
2018-11-29T19:25:37.782Z,0.86
2018-11-29T19:28:07.594Z,1.02
2018-11-29T19:30:37.017Z,1.02
2018-11-29T19:33:21.139Z,0.79
2018-11-29T19:35:51.558Z,0.77
2018-11-29T19:38:20.719Z,0.84
2018-11-29T19:40:50.021Z,0.84
2018-11-29T19:43:18.949Z,0.98
2018-11-29T19:45:48.048Z,0.93
2018-11-29T19:48:17.036Z,0.91
2018-11-29T19:50:46.309Z,0.72
2018-11-29T19:53:20.107Z,0.72
2018-11-29T19:55:50.212Z,0.69
2018-11-29T19:58:19.426Z,0.69
2018-11-29T20:00:48.462Z,0.78
2018-11-29T20:03:17.715Z,0.68
2018-11-29T20:05:47.272Z,0.64
2018-11-29T20:08:16.403Z,0.67
2018-11-29T20:10:45.431Z,0.65
2018-11-29T20:13:15.494Z,0.67
2018-11-29T20:15:48.181Z,0.61
2018-11-29T20:18:17.648Z,0.71
2018-11-29T20:20:46.920Z,0.75
2018-11-29T20:23:15.954Z,0.73
2018-11-29T20:25:46.123Z,0.73
2018-11-29T20:28:15.306Z,0.70
2018-11-29T20:30:44.451Z,0.83
2018-11-29T20:33:13.831Z,1.06
2018-11-29T20:35:43.169Z,1.15
2018-11-29T20:38:12.436Z,1.15
2018-11-29T20:40:42.811Z,1.19
2018-11-29T20:43:12.052Z,1.07
2018-11-29T20:45:45.440Z,1.09
2018-11-29T20:48:17.944Z,0.95
2018-11-29T20:50:47.199Z,1.06
2018-11-29T20:53:18.479Z,1.15
2018-11-29T20:55:47.775Z,1.28
2018-11-29T20:58:16.967Z,1.22
2018-11-29T21:00:46.172Z,1.04
2018-11-29T21:03:15.229Z,1.15
2018-11-29T21:05:44.886Z,1.25
2018-11-29T21:08:14.151Z,1.30
2018-11-29T21:10:43.111Z,1.13
2018-11-29T21:13:12.322Z,0.94
2018-11-29T21:15:43.321Z,0.92
2018-11-29T21:18:13.807Z,0.64
2018-11-29T21:20:43.504Z,0.75
2018-11-29T21:23:14.879Z,0.57
2018-11-29T21:25:44.506Z,0.49
2018-11-29T21:28:13.409Z,0.47
2018-11-29T21:30:42.309Z,0.49
2018-11-29T21:33:12.089Z,0.46
2018-11-29T21:35:41.416Z,0.57
2018-11-29T21:38:16.787Z,0.57
2018-11-29T21:40:50.140Z,0.51
2018-11-29T21:43:19.291Z,0.63
2018-11-29T21:45:48.239Z,0.48
2018-11-29T21:48:17.296Z,0.45
2018-11-29T21:50:46.498Z,0.55
2018-11-29T21:53:15.488Z,0.42
2018-11-29T21:55:44.507Z,0.48
2018-11-29T21:58:13.812Z,0.50
2018-11-29T22:00:42.744Z,0.55
2018-11-29T22:03:11.654Z,0.77
2018-11-29T22:05:40.630Z,0.72
2018-11-29T22:08:09.827Z,0.65
2018-11-29T22:10:38.796Z,0.60
2018-11-29T22:13:07.767Z,0.60
2018-11-29T22:15:36.664Z,0.66
2018-11-29T22:18:18.627Z,0.81
2018-11-29T22:20:48.755Z,0.95
2018-11-29T22:23:18.067Z,1.04
2018-11-29T22:25:47.044Z,1.10
2018-11-29T22:28:16.191Z,1.07
2018-11-29T22:30:45.428Z,1.00
2018-11-29T22:33:14.356Z,0.97
2018-11-29T22:35:43.681Z,0.98
2018-11-29T22:38:12.639Z,0.91
2018-11-29T22:40:42.420Z,0.95
2018-11-29T22:43:11.686Z,1.09
2018-11-29T22:45:40.541Z,1.15
2018-11-29T22:48:09.508Z,1.11
2018-11-29T22:50:38.642Z,1.08
2018-11-29T22:53:08.434Z,0.98
2018-11-29T22:55:37.704Z,0.96
2018-11-29T22:58:07.159Z,1.02
2018-11-29T23:00:43.402Z,0.95
2018-11-29T23:03:13.477Z,0.91
2018-11-29T23:05:42.644Z,0.81
2018-11-29T23:08:11.839Z,0.62
2018-11-29T23:10:40.987Z,0.53
2018-11-29T23:13:10.158Z,0.49
2018-11-29T23:15:39.557Z,0.65
2018-11-29T23:18:08.819Z,0.54
2018-11-29T23:20:37.934Z,0.45
2018-11-29T23:23:06.923Z,0.56
2018-11-29T23:25:36.481Z,0.72
2018-11-29T23:28:06.807Z,0.74
2018-11-29T23:30:36.065Z,0.83
2018-11-29T23:33:04.884Z,0.95
2018-11-29T23:35:34.076Z,0.86
2018-11-29T23:38:03.247Z,0.58
2018-11-29T23:40:32.435Z,0.54
2018-11-29T23:43:01.647Z,0.51
2018-11-29T23:45:30.996Z,0.49
2018-11-29T23:47:59.958Z,0.56
2018-11-29T23:50:29.135Z,0.69
2018-11-29T23:52:58.139Z,0.82
2018-11-29T23:55:27.069Z,0.67
2018-11-29T23:57:56.330Z,0.73
